Terminal Aerodrome Forecast
Issued by NWS

Home | Current Version | Previous Version | Text Only | Print | Product List | Glossary On
Versions: 1 2 3 4 5 6 7 8 9 10 11 12 13 14
000
FTUS42 TJSJ 191700
TAFJBQ
TAF
TJBQ 191734Z 1918/2018 10013G19KT P6SM VCSH SCT020
     FM192300 10007KT P6SM FEW025
     FM201400 07014KT P6SM SCT030 SCT070
      AMD NOT SKED 2002/2011=

USA.gov is the U.S. government's official web portal to all federal, state and local government web resources and services.